Datum - Zeit
Döttingen
TemperaturTaupunktFeuchteSolar Wind aus
Richtung
Windböenaus
Richtung
Luftdruck
(QFF)
RegenRegen
Stärke
22.02.2020 - 00.00Uhr1.2 °C-1.1 °C84 %0.0 W/m²2.6 km/hOsten4.0 km/hOsten1031.7 hPa0.0 mm0.0 mm/h
22.02.2020 - 00.05Uhr1.3 °C-1.1 °C84 %0.0 W/m²1.0 km/hOsten4.0 km/hOsten1031.8 hPa0.0 mm0.0 mm/h
22.02.2020 - 00.10Uhr0.9 °C-1.4 °C84 %0.0 W/m²0.0 km/hOsten0.0 km/hNorden1031.7 hPa0.0 mm0.0 mm/h
22.02.2020 - 00.15Uhr0.9 °C-1.3 °C86 %0.0 W/m²0.0 km/hOsten0.0 km/hNorden1031.8 hPa0.0 mm0.0 mm/h
22.02.2020 - 00.20Uhr1.1 °C-1.0 °C86 %0.0 W/m²0.6 km/hOsten1.8 km/hOsten1031.9 hPa0.0 mm0.0 mm/h
22.02.2020 - 00.25Uhr1.6 °C-0.7 °C84 %0.0 W/m²0.0 km/hOsten0.0 km/hNorden1031.9 hPa0.0 mm0.0 mm/h
22.02.2020 - 00.30Uhr1.6 °C-0.8 °C84 %0.0 W/m²0.3 km/hOsten1.8 km/hOsten1032.0 hPa0.0 mm0.0 mm/h
22.02.2020 - 00.35Uhr1.6 °C-0.8 °C84 %0.0 W/m²1.3 km/hOsten4.0 km/hOsten1032.1 hPa0.0 mm0.0 mm/h
22.02.2020 - 00.40Uhr1.4 °C-1.0 °C84 %0.0 W/m²0.0 km/hOsten0.0 km/hNorden1032.0 hPa0.0 mm0.0 mm/h
22.02.2020 - 00.45Uhr1.3 °C-1.0 °C85 %0.0 W/m²0.0 km/hOsten0.0 km/hNorden1032.0 hPa0.0 mm0.0 mm/h
22.02.2020 - 00.50Uhr1.2 °C-1.0 °C85 %0.0 W/m²3.4 km/hOsten5.8 km/hOsten1032.0 hPa0.0 mm0.0 mm/h
22.02.2020 - 00.55Uhr0.8 °C-1.3 °C86 %0.0 W/m²2.5 km/hOsten5.8 km/hOsten1031.8 hPa0.0 mm0.0 mm/h
22.02.2020 - 01.00Uhr0.8 °C-1.3 °C86 %0.0 W/m²4.2 km/hOsten8.3 km/hOsten1031.8 hPa0.0 mm0.0 mm/h
22.02.2020 - 01.05Uhr0.8 °C-1.1 °C87 %0.0 W/m²1.5 km/hOsten5.8 km/hOsten1031.9 hPa0.0 mm0.0 mm/h
22.02.2020 - 01.10Uhr0.8 °C-1.1 °C87 %0.0 W/m²0.0 km/hOsten0.0 km/hNorden1031.9 hPa0.0 mm0.0 mm/h
22.02.2020 - 01.15Uhr0.9 °C-1.2 °C86 %0.0 W/m²0.0 km/hOsten0.0 km/hNorden1031.7 hPa0.0 mm0.0 mm/h
22.02.2020 - 01.20Uhr0.8 °C-1.2 °C86 %0.0 W/m²1.9 km/hOsten4.0 km/hOsten1031.6 hPa0.0 mm0.0 mm/h
22.02.2020 - 01.25Uhr0.8 °C-1.2 °C86 %0.0 W/m²2.9 km/hOsten4.0 km/hOsten1031.6 hPa0.0 mm0.0 mm/h
22.02.2020 - 01.30Uhr0.9 °C-1.3 °C86 %0.0 W/m²2.7 km/hOsten4.0 km/hOsten1031.7 hPa0.0 mm0.0 mm/h
22.02.2020 - 01.35Uhr0.8 °C-1.4 °C85 %0.0 W/m²2.7 km/hOsten5.8 km/hOsten1031.7 hPa0.0 mm0.0 mm/h
22.02.2020 - 01.40Uhr0.8 °C-1.4 °C85 %0.0 W/m²0.0 km/hOsten0.0 km/hNorden1031.7 hPa0.0 mm0.0 mm/h
22.02.2020 - 01.45Uhr0.6 °C-1.4 °C87 %0.0 W/m²0.0 km/hOsten0.0 km/hNorden1031.6 hPa0.0 mm0.0 mm/h
22.02.2020 - 01.50Uhr0.6 °C-1.3 °C87 %0.0 W/m²1.9 km/hOsten4.0 km/hOsten1031.5 hPa0.0 mm0.0 mm/h
22.02.2020 - 01.55Uhr0.3 °C-1.6 °C87 %0.0 W/m²4.3 km/hOsten8.3 km/hOsten1031.4 hPa0.0 mm0.0 mm/h
22.02.2020 - 02.00Uhr0.3 °C-1.5 °C88 %0.0 W/m²3.1 km/hOsten5.8 km/hOsten1031.5 hPa0.0 mm0.0 mm/h
22.02.2020 - 02.05Uhr0.5 °C-1.4 °C87 %0.0 W/m²0.0 km/hOsten0.0 km/hNorden1031.4 hPa0.0 mm0.0 mm/h
22.02.2020 - 02.10Uhr0.3 °C-1.6 °C87 %0.0 W/m²5.1 km/hOsten8.3 km/hOsten1031.3 hPa0.0 mm0.0 mm/h
22.02.2020 - 02.15Uhr0.1 °C-1.7 °C88 %0.0 W/m²3.3 km/hOsten8.3 km/hOsten1031.2 hPa0.0 mm0.0 mm/h
22.02.2020 - 02.20Uhr0.4 °C-1.5 °C87 %0.0 W/m²4.9 km/hOsten8.3 km/hOsten1031.2 hPa0.0 mm0.0 mm/h
22.02.2020 - 02.25Uhr0.6 °C-1.4 °C86 %0.0 W/m²4.5 km/hOsten8.3 km/hOsten1031.2 hPa0.0 mm0.0 mm/h
22.02.2020 - 02.30Uhr0.7 °C-1.4 °C86 %0.0 W/m²1.5 km/hOsten4.0 km/hOsten1031.1 hPa0.0 mm0.0 mm/h
22.02.2020 - 02.35Uhr0.3 °C-1.7 °C87 %0.0 W/m²0.0 km/hOsten0.0 km/hNorden1031.2 hPa0.0 mm0.0 mm/h
22.02.2020 - 02.40Uhr0.2 °C-1.7 °C87 %0.0 W/m²0.0 km/hOsten0.0 km/hNorden1031.3 hPa0.0 mm0.0 mm/h
22.02.2020 - 02.45Uhr0.1 °C-1.7 °C88 %0.0 W/m²0.0 km/hOsten0.0 km/hNorden1031.2 hPa0.0 mm0.0 mm/h
22.02.2020 - 02.50Uhr0.3 °C-1.5 °C88 %0.0 W/m²0.0 km/hOsten0.0 km/hNorden1031.1 hPa0.0 mm0.0 mm/h
22.02.2020 - 02.55Uhr0.1 °C-1.7 °C88 %0.0 W/m²2.2 km/hOsten4.0 km/hOsten1031.0 hPa0.0 mm0.0 mm/h
22.02.2020 - 03.00Uhr0.1 °C-1.7 °C88 %0.0 W/m²2.7 km/hOsten5.8 km/hOsten1031.1 hPa0.0 mm0.0 mm/h
22.02.2020 - 03.05Uhr0.0 °C-1.7 °C88 %0.0 W/m²1.0 km/hOsten4.0 km/hOsten1031.0 hPa0.0 mm0.0 mm/h
22.02.2020 - 03.10Uhr-0.2 °C-1.9 °C88 %0.0 W/m²1.3 km/hOsten4.0 km/hOsten1030.9 hPa0.0 mm0.0 mm/h
22.02.2020 - 03.15Uhr0.0 °C-1.7 °C88 %0.0 W/m²0.0 km/hOsten0.0 km/hNorden1030.9 hPa0.0 mm0.0 mm/h
22.02.2020 - 03.20Uhr-0.0 °C-1.8 °C88 %0.0 W/m²0.0 km/hOsten0.0 km/hNorden1030.8 hPa0.0 mm0.0 mm/h
22.02.2020 - 03.25Uhr-0.3 °C-2.1 °C87 %0.0 W/m²0.0 km/hOsten0.0 km/hNorden1030.7 hPa0.0 mm0.0 mm/h
22.02.2020 - 03.30Uhr-0.2 °C-1.9 °C88 %0.0 W/m²0.0 km/hOsten0.0 km/hNorden1030.7 hPa0.0 mm0.0 mm/h
22.02.2020 - 03.35Uhr-0.2 °C-1.9 °C88 %0.0 W/m²0.0 km/hOsten0.0 km/hNorden1030.7 hPa0.0 mm0.0 mm/h
22.02.2020 - 03.40Uhr-0.2 °C-1.9 °C88 %0.0 W/m²0.0 km/hOsten0.0 km/hNorden1030.7 hPa0.0 mm0.0 mm/h
22.02.2020 - 03.45Uhr-0.2 °C-1.8 °C89 %0.0 W/m²0.0 km/hOsten0.0 km/hNorden1030.8 hPa0.0 mm0.0 mm/h
22.02.2020 - 03.50Uhr-0.1 °C-1.7 °C89 %0.0 W/m²0.6 km/hOsten1.8 km/hOsten1030.8 hPa0.0 mm0.0 mm/h
22.02.2020 - 03.55Uhr-0.2 °C-1.8 °C89 %0.0 W/m²0.0 km/hOsten0.0 km/hNorden1030.8 hPa0.0 mm0.0 mm/h
22.02.2020 - 04.00Uhr-0.5 °C-2.1 °C89 %0.0 W/m²0.5 km/hOsten1.8 km/hOsten1030.7 hPa0.0 mm0.0 mm/h
22.02.2020 - 04.05Uhr-0.6 °C-2.2 °C89 %0.0 W/m²0.0 km/hOsten0.0 km/hNorden1030.8 hPa0.0 mm0.0 mm/h
22.02.2020 - 04.10Uhr-0.6 °C-2.2 °C89 %0.0 W/m²0.0 km/hOsten0.0 km/hNorden1030.9 hPa0.0 mm0.0 mm/h
22.02.2020 - 04.15Uhr-0.4 °C-2.0 °C89 %0.0 W/m²0.0 km/hOsten0.0 km/hNorden1030.9 hPa0.0 mm0.0 mm/h
22.02.2020 - 04.20Uhr-0.5 °C-2.1 °C89 %0.0 W/m²0.0 km/hOsten0.0 km/hNorden1030.9 hPa0.0 mm0.0 mm/h
22.02.2020 - 04.25Uhr-0.6 °C-2.2 °C89 %0.0 W/m²0.0 km/hOsten0.0 km/hNorden1030.9 hPa0.0 mm0.0 mm/h
22.02.2020 - 04.30Uhr-0.7 °C-2.3 °C89 %0.0 W/m²0.0 km/hOsten0.0 km/hNorden1030.9 hPa0.0 mm0.0 mm/h
22.02.2020 - 04.35Uhr-0.6 °C-2.2 °C89 %0.0 W/m²0.0 km/hOsten0.0 km/hNorden1030.9 hPa0.0 mm0.0 mm/h
22.02.2020 - 04.40Uhr-0.5 °C-2.1 °C89 %0.0 W/m²0.0 km/hOsten0.0 km/hNorden1030.9 hPa0.0 mm0.0 mm/h
22.02.2020 - 04.45Uhr-0.7 °C-2.3 °C89 %0.0 W/m²0.0 km/hOsten0.0 km/hNorden1030.9 hPa0.0 mm0.0 mm/h
22.02.2020 - 04.50Uhr-0.8 °C-2.4 °C89 %0.0 W/m²0.4 km/hOsten1.8 km/hOsten1030.9 hPa0.0 mm0.0 mm/h
22.02.2020 - 04.55Uhr-0.8 °C-2.4 °C89 %0.0 W/m²2.0 km/hOsten4.0 km/hOsten1030.9 hPa0.0 mm0.0 mm/h
22.02.2020 - 05.00Uhr-0.6 °C-2.2 °C89 %0.0 W/m²1.8 km/hOsten4.0 km/hOsten1031.0 hPa0.0 mm0.0 mm/h
22.02.2020 - 05.05Uhr-0.7 °C-2.3 °C89 %0.0 W/m²0.0 km/hOsten0.0 km/hNorden1031.0 hPa0.0 mm0.0 mm/h
22.02.2020 - 05.10Uhr-0.8 °C-2.4 °C89 %0.0 W/m²0.0 km/hOsten0.0 km/hNorden1031.0 hPa0.0 mm0.0 mm/h
22.02.2020 - 05.15Uhr-0.7 °C-2.3 °C89 %0.0 W/m²0.0 km/hOsten0.0 km/hNorden1031.1 hPa0.0 mm0.0 mm/h
22.02.2020 - 05.20Uhr-0.6 °C-2.2 °C89 %0.0 W/m²0.3 km/hOsten1.8 km/hOsten1031.1 hPa0.0 mm0.0 mm/h
22.02.2020 - 05.25Uhr-0.4 °C-2.0 °C89 %0.0 W/m²2.1 km/hOsten4.0 km/hOsten1031.2 hPa0.0 mm0.0 mm/h
22.02.2020 - 05.30Uhr-0.6 °C-2.2 °C89 %0.0 W/m²0.0 km/hOsten0.0 km/hNorden1031.3 hPa0.0 mm0.0 mm/h
22.02.2020 - 05.35Uhr-0.8 °C-2.4 °C89 %0.0 W/m²1.7 km/hOsten4.0 km/hOsten1031.3 hPa0.0 mm0.0 mm/h
22.02.2020 - 05.40Uhr-1.0 °C-2.6 °C89 %0.0 W/m²2.8 km/hOsten4.0 km/hOsten1031.3 hPa0.0 mm0.0 mm/h
22.02.2020 - 05.45Uhr-1.1 °C-2.7 °C89 %0.0 W/m²2.9 km/hOsten5.8 km/hOsten1031.3 hPa0.0 mm0.0 mm/h
22.02.2020 - 05.50Uhr-0.8 °C-2.4 °C89 %0.0 W/m²0.9 km/hOsten4.0 km/hOsten1031.2 hPa0.0 mm0.0 mm/h
22.02.2020 - 05.55Uhr-0.8 °C-2.4 °C89 %0.0 W/m²0.0 km/hOsten0.0 km/hNorden1031.2 hPa0.0 mm0.0 mm/h
22.02.2020 - 06.00Uhr-0.8 °C-2.4 °C89 %0.0 W/m²0.0 km/hOsten0.0 km/hNorden1031.3 hPa0.0 mm0.0 mm/h
22.02.2020 - 06.05Uhr-0.8 °C-2.4 °C89 %0.0 W/m²0.0 km/hOsten0.0 km/hNorden1031.3 hPa0.0 mm0.0 mm/h
22.02.2020 - 06.10Uhr-0.7 °C-2.3 °C89 %0.0 W/m²0.0 km/hOsten0.0 km/hNorden1031.3 hPa0.0 mm0.0 mm/h
22.02.2020 - 06.15Uhr-0.8 °C-2.4 °C89 %0.0 W/m²1.5 km/hOsten4.0 km/hOsten1031.4 hPa0.0 mm0.0 mm/h
22.02.2020 - 06.20Uhr-1.2 °C-2.8 °C89 %0.0 W/m²3.3 km/hOsten5.8 km/hOsten1031.5 hPa0.0 mm0.0 mm/h
22.02.2020 - 06.25Uhr-1.2 °C-2.8 °C89 %0.0 W/m²0.0 km/hOsten0.0 km/hNorden1031.5 hPa0.0 mm0.0 mm/h
22.02.2020 - 06.30Uhr-1.2 °C-2.8 °C89 %0.0 W/m²0.0 km/hOsten0.0 km/hNorden1031.5 hPa0.0 mm0.0 mm/h
22.02.2020 - 06.35Uhr-0.8 °C-2.4 °C89 %0.0 W/m²2.1 km/hOsten4.0 km/hOsten1031.4 hPa0.0 mm0.0 mm/h
22.02.2020 - 06.40Uhr-0.7 °C-2.3 °C89 %0.0 W/m²2.4 km/hOsten4.0 km/hOsten1031.4 hPa0.0 mm0.0 mm/h
22.02.2020 - 06.45Uhr-0.8 °C-2.5 °C89 %0.0 W/m²2.5 km/hOsten5.8 km/hOsten1031.3 hPa0.0 mm0.0 mm/h
22.02.2020 - 06.50Uhr-1.0 °C-2.6 °C89 %0.0 W/m²3.7 km/hOsten5.8 km/hOsten1031.2 hPa0.0 mm0.0 mm/h
22.02.2020 - 06.55Uhr-1.1 °C-2.7 °C89 %0.0 W/m²4.7 km/hOsten5.8 km/hOsten1031.1 hPa0.0 mm0.0 mm/h
22.02.2020 - 07.00Uhr-1.0 °C-2.6 °C89 %0.0 W/m²2.6 km/hOsten4.0 km/hOsten1031.2 hPa0.0 mm0.0 mm/h
22.02.2020 - 07.05Uhr-0.8 °C-2.4 °C89 %0.0 W/m²0.3 km/hOsten1.8 km/hOsten1031.2 hPa0.0 mm0.0 mm/h
22.02.2020 - 07.10Uhr-0.6 °C-2.2 °C89 %0.0 W/m²0.0 km/hOsten0.0 km/hNorden1031.2 hPa0.0 mm0.0 mm/h
22.02.2020 - 07.15Uhr-0.6 °C-2.1 °C89 %0.0 W/m²0.0 km/hOsten0.0 km/hNorden1031.4 hPa0.0 mm0.0 mm/h
22.02.2020 - 07.20Uhr-0.4 °C-2.0 °C89 %5.0 W/m²0.0 km/hOsten0.0 km/hNorden1031.4 hPa0.0 mm0.0 mm/h
22.02.2020 - 07.25Uhr-0.3 °C-1.9 °C89 %9.0 W/m²0.0 km/hOsten0.0 km/hNorden1031.4 hPa0.0 mm0.0 mm/h
22.02.2020 - 07.30Uhr-0.4 °C-2.0 °C89 %12.0 W/m²0.0 km/hOsten0.0 km/hNorden1031.6 hPa0.0 mm0.0 mm/h
22.02.2020 - 07.35Uhr-0.7 °C-2.3 °C89 %16.0 W/m²1.7 km/hOsten4.0 km/hOsten1031.6 hPa0.0 mm0.0 mm/h
22.02.2020 - 07.40Uhr-0.8 °C-2.4 °C89 %23.0 W/m²4.7 km/hOsten8.3 km/hOsten1031.6 hPa0.0 mm0.0 mm/h
22.02.2020 - 07.45Uhr-0.6 °C-2.1 °C89 %25.0 W/m²5.2 km/hOsten8.3 km/hOsten1031.6 hPa0.0 mm0.0 mm/h
22.02.2020 - 07.50Uhr-0.3 °C-1.9 °C89 %30.0 W/m²4.7 km/hOsten8.3 km/hOsten1031.7 hPa0.0 mm0.0 mm/h
22.02.2020 - 07.55Uhr-0.4 °C-2.0 °C89 %39.0 W/m²5.3 km/hOsten8.3 km/hOsten1031.7 hPa0.0 mm0.0 mm/h
22.02.2020 - 08.00Uhr-0.3 °C-1.9 °C89 %46.0 W/m²5.0 km/hOsten8.3 km/hOsten1031.8 hPa0.0 mm0.0 mm/h
22.02.2020 - 08.05Uhr-0.2 °C-1.8 °C89 %47.0 W/m²7.1 km/hOsten12.2 km/hOsten1031.8 hPa0.0 mm0.0 mm/h
22.02.2020 - 08.10Uhr-0.0 °C-1.6 °C89 %62.0 W/m²9.8 km/hOsten12.2 km/hOsten1031.7 hPa0.0 mm0.0 mm/h
22.02.2020 - 08.15Uhr0.1 °C-1.5 °C89 %79.0 W/m²7.1 km/hOst-SO8.3 km/hOst-SO1031.7 hPa0.0 mm0.0 mm/h
22.02.2020 - 08.20Uhr0.2 °C-1.4 °C89 %91.0 W/m²8.8 km/hOst-SO12.2 km/hOst-SO1031.7 hPa0.0 mm0.0 mm/h
22.02.2020 - 08.25Uhr0.4 °C-1.2 °C89 %93.0 W/m²5.0 km/hOst-SO8.3 km/hOst-SO1031.7 hPa0.0 mm0.0 mm/h
22.02.2020 - 08.30Uhr0.6 °C-1.0 °C89 %98.0 W/m²5.1 km/hOst-SO8.3 km/hOst-SO1031.8 hPa0.0 mm0.0 mm/h
22.02.2020 - 08.35Uhr0.8 °C-0.8 °C89 %113.0 W/m²3.7 km/hOst-SO8.3 km/hOst-SO1031.8 hPa0.0 mm0.0 mm/h
22.02.2020 - 08.40Uhr0.9 °C-0.7 °C89 %127.0 W/m²2.5 km/hSüdosten8.3 km/hSüdosten1032.0 hPa0.0 mm0.0 mm/h
22.02.2020 - 08.45Uhr1.4 °C-0.3 °C89 %134.0 W/m²1.8 km/hSüdosten8.3 km/hSüdosten1032.1 hPa0.0 mm0.0 mm/h
22.02.2020 - 08.50Uhr1.6 °C-0.2 °C88 %146.0 W/m²2.4 km/hSüdosten8.3 km/hSüdosten1032.0 hPa0.0 mm0.0 mm/h
22.02.2020 - 08.55Uhr1.6 °C-0.2 °C88 %155.0 W/m²1.1 km/hSüdosten4.0 km/hSüdosten1031.9 hPa0.0 mm0.0 mm/h
22.02.2020 - 09.00Uhr1.9 °C0.1 °C88 %169.0 W/m²0.8 km/hSüdosten4.0 km/hSüdosten1031.8 hPa0.0 mm0.0 mm/h
22.02.2020 - 09.05Uhr2.0 °C0.1 °C87 %179.0 W/m²0.5 km/hSüdosten1.8 km/hSüdosten1031.7 hPa0.0 mm0.0 mm/h
22.02.2020 - 09.10Uhr2.2 °C0.3 °C87 %190.0 W/m²4.8 km/hSüdwesten8.3 km/hSüd-SO1031.7 hPa0.0 mm0.0 mm/h
22.02.2020 - 09.15Uhr2.3 °C0.3 °C86 %206.0 W/m²3.5 km/hSüdwesten8.3 km/hSüdwesten1031.6 hPa0.0 mm0.0 mm/h
22.02.2020 - 09.20Uhr2.5 °C0.5 °C86 %229.0 W/m²3.4 km/hSüdwesten8.3 km/hSüden1031.6 hPa0.0 mm0.0 mm/h
22.02.2020 - 09.25Uhr3.0 °C0.7 °C85 %244.0 W/m²4.7 km/hSüden12.2 km/hSüden1031.5 hPa0.0 mm0.0 mm/h
22.02.2020 - 09.30Uhr3.2 °C0.8 °C84 %272.0 W/m²4.5 km/hSüd-SO12.2 km/hSüd-SO1031.6 hPa0.0 mm0.0 mm/h
22.02.2020 - 09.35Uhr3.3 °C0.9 °C84 %292.0 W/m²4.1 km/hSüd-SO12.2 km/hSüd-SO1031.6 hPa0.0 mm0.0 mm/h
22.02.2020 - 09.40Uhr3.6 °C1.1 °C84 %295.0 W/m²3.5 km/hSüdwesten12.2 km/hWest-SW1031.7 hPa0.0 mm0.0 mm/h
22.02.2020 - 09.45Uhr4.1 °C1.4 °C83 %306.0 W/m²1.6 km/hSüdwesten4.0 km/hSüdwesten1031.7 hPa0.0 mm0.0 mm/h
22.02.2020 - 09.50Uhr4.3 °C1.5 °C82 %309.0 W/m²1.9 km/hSüdwesten5.8 km/hSüd-SW1031.7 hPa0.0 mm0.0 mm/h
22.02.2020 - 09.55Uhr4.3 °C1.5 °C82 %367.0 W/m²2.3 km/hSüden8.3 km/hSüd-SO1031.8 hPa0.0 mm0.0 mm/h
22.02.2020 - 10.00Uhr4.5 °C1.5 °C81 %315.0 W/m²1.7 km/hSüd-SO8.3 km/hSüd-SO1032.1 hPa0.0 mm0.0 mm/h
22.02.2020 - 10.05Uhr4.6 °C1.5 °C80 %327.0 W/m²3.0 km/hSüd-SO10.1 km/hSüd-SO1032.0 hPa0.0 mm0.0 mm/h
22.02.2020 - 10.10Uhr5.0 °C1.9 °C80 %297.0 W/m²4.5 km/hSüd-SO8.3 km/hSüd-SO1032.0 hPa0.0 mm0.0 mm/h
22.02.2020 - 10.15Uhr4.8 °C1.6 °C79 %229.0 W/m²5.6 km/hSüd-SO8.3 km/hSüd-SO1032.0 hPa0.0 mm0.0 mm/h
22.02.2020 - 10.20Uhr4.8 °C1.6 °C80 %299.0 W/m²5.7 km/hSüd-SO14.0 km/hSüdosten1032.0 hPa0.0 mm0.0 mm/h
22.02.2020 - 10.25Uhr5.1 °C1.9 °C80 %346.0 W/m²3.3 km/hSüd-SO8.3 km/hSüd-SO1032.0 hPa0.0 mm0.0 mm/h
22.02.2020 - 10.30Uhr5.5 °C2.2 °C79 %323.0 W/m²6.7 km/hSüd-SO14.0 km/hSüd-SO1031.8 hPa0.0 mm0.0 mm/h
22.02.2020 - 10.35Uhr5.5 °C1.8 °C77 %411.0 W/m²11.6 km/hSüdosten18.0 km/hSüdosten1031.7 hPa0.0 mm0.0 mm/h
22.02.2020 - 10.40Uhr5.7 °C2.0 °C77 %406.0 W/m²5.4 km/hSüden16.2 km/hSüden1031.7 hPa0.0 mm0.0 mm/h
22.02.2020 - 10.45Uhr6.1 °C2.3 °C76 %385.0 W/m²6.4 km/hSüden14.0 km/hSüdosten1031.7 hPa0.0 mm0.0 mm/h
22.02.2020 - 10.50Uhr6.4 °C2.4 °C76 %443.0 W/m²3.9 km/hSüdosten12.2 km/hSüd-SO1031.6 hPa0.0 mm0.0 mm/h
22.02.2020 - 10.55Uhr6.6 °C2.4 °C74 %457.0 W/m²8.9 km/hSüd-SO14.0 km/hSüd-SO1031.5 hPa0.0 mm0.0 mm/h
22.02.2020 - 11.00Uhr6.8 °C2.5 °C74 %438.0 W/m²8.4 km/hSüd-SO16.2 km/hSüdosten1031.4 hPa0.0 mm0.0 mm/h
22.02.2020 - 11.05Uhr7.1 °C2.9 °C75 %443.0 W/m²6.6 km/hSüd-SO14.0 km/hSüd-SO1031.3 hPa0.0 mm0.0 mm/h
22.02.2020 - 11.10Uhr7.3 °C2.5 °C72 %367.0 W/m²8.2 km/hSüden16.2 km/hSüdosten1031.2 hPa0.0 mm0.0 mm/h
22.02.2020 - 11.15Uhr7.3 °C2.6 °C72 %459.0 W/m²8.4 km/hSüd-SO16.2 km/hSüd-SO1031.2 hPa0.0 mm0.0 mm/h
22.02.2020 - 11.20Uhr7.6 °C2.8 °C72 %462.0 W/m²7.2 km/hSüdosten16.2 km/hSüdosten1031.3 hPa0.0 mm0.0 mm/h
22.02.2020 - 11.25Uhr8.0 °C3.0 °C70 %469.0 W/m²6.0 km/hSüden14.0 km/hSüden1031.5 hPa0.0 mm0.0 mm/h
22.02.2020 - 11.30Uhr8.3 °C3.0 °C70 %471.0 W/m²6.3 km/hSüden18.0 km/hSüd-SO1031.4 hPa0.0 mm0.0 mm/h
22.02.2020 - 11.35Uhr8.5 °C3.2 °C70 %475.0 W/m²4.1 km/hSüd-SO8.3 km/hSüd-SO1031.5 hPa0.0 mm0.0 mm/h
22.02.2020 - 11.40Uhr8.6 °C3.0 °C68 %468.0 W/m²4.4 km/hSüd-SW8.3 km/hSüd-SW1031.5 hPa0.0 mm0.0 mm/h
22.02.2020 - 11.45Uhr8.7 °C3.1 °C68 %480.0 W/m²7.8 km/hSüden14.0 km/hSüdosten1031.5 hPa0.0 mm0.0 mm/h
22.02.2020 - 11.50Uhr9.4 °C3.5 °C67 %490.0 W/m²5.4 km/hSüden12.2 km/hSüd-SO1031.4 hPa0.0 mm0.0 mm/h
22.02.2020 - 11.55Uhr9.7 °C3.2 °C64 %503.0 W/m²8.9 km/hSüden16.2 km/hSüdosten1031.2 hPa0.0 mm0.0 mm/h
22.02.2020 - 12.00Uhr9.8 °C3.4 °C64 %531.0 W/m²6.4 km/hSüden12.2 km/hSüd-SO1031.1 hPa0.0 mm0.0 mm/h
22.02.2020 - 12.05Uhr10.1 °C3.2 °C62 %536.0 W/m²6.8 km/hSüdwesten14.0 km/hSüd-SO1031.3 hPa0.0 mm0.0 mm/h
22.02.2020 - 12.10Uhr10.3 °C3.1 °C61 %559.0 W/m²8.3 km/hSüd-SO22.0 km/hSüdosten1031.4 hPa0.0 mm0.0 mm/h
22.02.2020 - 12.15Uhr10.5 °C3.5 °C62 %524.0 W/m²5.6 km/hSüd-SW12.2 km/hSüdwesten1031.5 hPa0.0 mm0.0 mm/h
22.02.2020 - 12.20Uhr10.6 °C3.3 °C60 %533.0 W/m²11.1 km/hSüd-SO18.0 km/hSüdosten1031.4 hPa0.0 mm0.0 mm/h
22.02.2020 - 12.25Uhr10.5 °C3.2 °C61 %492.0 W/m²11.1 km/hSüden22.0 km/hSüd-SO1031.4 hPa0.0 mm0.0 mm/h
22.02.2020 - 12.30Uhr10.6 °C3.3 °C60 %519.0 W/m²11.6 km/hSüd-SO18.0 km/hSüdosten1031.2 hPa0.0 mm0.0 mm/h
22.02.2020 - 12.35Uhr10.8 °C3.4 °C60 %466.0 W/m²10.0 km/hSüd-SO20.2 km/hSüd-SO1031.2 hPa0.0 mm0.0 mm/h
22.02.2020 - 12.40Uhr11.0 °C3.6 °C61 %490.0 W/m²6.0 km/hSüden18.0 km/hSüd-SO1031.3 hPa0.0 mm0.0 mm/h
22.02.2020 - 12.45Uhr11.2 °C3.6 °C59 %508.0 W/m²7.7 km/hSüden14.0 km/hSüdosten1031.3 hPa0.0 mm0.0 mm/h
22.02.2020 - 12.50Uhr11.5 °C3.7 °C59 %504.0 W/m²7.9 km/hSüd-SO14.0 km/hSüd-SO1031.2 hPa0.0 mm0.0 mm/h
22.02.2020 - 12.55Uhr11.7 °C3.5 °C57 %504.0 W/m²5.2 km/hSüd-SO12.2 km/hSüdosten1031.0 hPa0.0 mm0.0 mm/h
22.02.2020 - 13.00Uhr11.9 °C3.4 °C56 %503.0 W/m²8.2 km/hSüd-SO16.2 km/hSüd-SO1031.0 hPa0.0 mm0.0 mm/h
22.02.2020 - 13.05Uhr12.1 °C3.2 °C55 %503.0 W/m²5.1 km/hSüd-SO14.0 km/hSüdosten1030.8 hPa0.0 mm0.0 mm/h
22.02.2020 - 13.10Uhr12.4 °C3.5 °C54 %504.0 W/m²7.1 km/hSüd-SO12.2 km/hSüdosten1030.7 hPa0.0 mm0.0 mm/h
22.02.2020 - 13.15Uhr12.7 °C3.2 °C52 %504.0 W/m²7.2 km/hWesten14.0 km/hSüdosten1030.6 hPa0.0 mm0.0 mm/h
22.02.2020 - 13.20Uhr12.8 °C-0.7 °C39 %503.0 W/m²10.7 km/hWest-SW18.0 km/hWest-SW1030.6 hPa0.0 mm0.0 mm/h
22.02.2020 - 13.25Uhr12.8 °C-2.4 °C35 %494.0 W/m²14.3 km/hWest-SW28.4 km/hWest-SW1030.4 hPa0.0 mm0.0 mm/h
22.02.2020 - 13.30Uhr12.9 °C-3.0 °C33 %490.0 W/m²11.3 km/hWest-SW20.2 km/hSüdwesten1030.1 hPa0.0 mm0.0 mm/h
22.02.2020 - 13.35Uhr13.1 °C-3.3 °C32 %489.0 W/m²12.1 km/hWesten26.3 km/hWest-SW1029.9 hPa0.0 mm0.0 mm/h
22.02.2020 - 13.40Uhr13.1 °C-3.3 °C32 %485.0 W/m²11.5 km/hWest-SW22.0 km/hWest-SW1029.6 hPa0.0 mm0.0 mm/h
22.02.2020 - 13.45Uhr13.2 °C-3.7 °C31 %480.0 W/m²13.3 km/hWesten22.0 km/hWesten1029.4 hPa0.0 mm0.0 mm/h
22.02.2020 - 13.50Uhr13.2 °C-2.7 °C33 %478.0 W/m²13.1 km/hWesten24.5 km/hWesten1029.5 hPa0.0 mm0.0 mm/h
22.02.2020 - 13.55Uhr13.2 °C-2.5 °C34 %471.0 W/m²7.2 km/hSüdwesten14.0 km/hWest-NW1029.4 hPa0.0 mm0.0 mm/h
22.02.2020 - 14.00Uhr13.5 °C-0.9 °C37 %466.0 W/m²3.4 km/hSüdwesten8.3 km/hSüdwesten1029.4 hPa0.0 mm0.0 mm/h
22.02.2020 - 14.05Uhr13.8 °C1.3 °C42 %462.0 W/m²2.8 km/hSüdwesten8.3 km/hSüdwesten1029.2 hPa0.0 mm0.0 mm/h
22.02.2020 - 14.10Uhr14.1 °C2.2 °C45 %457.0 W/m²5.1 km/hWest-SW12.2 km/hWest-SW1029.0 hPa0.0 mm0.0 mm/h
22.02.2020 - 14.15Uhr14.2 °C2.6 °C45 %450.0 W/m²5.2 km/hSüd-SW12.2 km/hSüd-SO1028.8 hPa0.0 mm0.0 mm/h
22.02.2020 - 14.20Uhr14.2 °C3.4 °C48 %443.0 W/m²5.8 km/hSüden14.0 km/hSüden1028.6 hPa0.0 mm0.0 mm/h
22.02.2020 - 14.25Uhr14.0 °C3.8 °C50 %431.0 W/m²8.0 km/hSüd-SO16.2 km/hSüd-SO1028.8 hPa0.0 mm0.0 mm/h
22.02.2020 - 14.30Uhr13.9 °C3.7 °C50 %436.0 W/m²7.5 km/hSüdwesten18.0 km/hSüdosten1028.8 hPa0.0 mm0.0 mm/h
22.02.2020 - 14.35Uhr13.8 °C3.3 °C49 %434.0 W/m²8.9 km/hSüd-SO18.0 km/hSüd-SO1028.8 hPa0.0 mm0.0 mm/h
22.02.2020 - 14.40Uhr14.1 °C4.0 °C51 %425.0 W/m²3.8 km/hSüdwesten14.0 km/hSüd-SO1028.8 hPa0.0 mm0.0 mm/h
22.02.2020 - 14.45Uhr14.3 °C3.9 °C50 %387.0 W/m²5.3 km/hSüd-SW8.3 km/hSüden1028.9 hPa0.0 mm0.0 mm/h
22.02.2020 - 14.50Uhr14.3 °C3.4 °C48 %348.0 W/m²6.7 km/hWest-SW12.2 km/hWest-SW1028.9 hPa0.0 mm0.0 mm/h
22.02.2020 - 14.55Uhr14.0 °C2.9 °C47 %330.0 W/m²6.9 km/hWest-SW12.2 km/hWest-SW1028.9 hPa0.0 mm0.0 mm/h
22.02.2020 - 15.00Uhr14.1 °C3.6 °C49 %403.0 W/m²4.6 km/hWest-NW12.2 km/hWesten1028.9 hPa0.0 mm0.0 mm/h
22.02.2020 - 15.05Uhr14.4 °C3.9 °C49 %406.0 W/m²3.3 km/hWest-SW8.3 km/hWest-SW1028.9 hPa0.0 mm0.0 mm/h
22.02.2020 - 15.10Uhr14.7 °C3.9 °C48 %390.0 W/m²3.6 km/hWest-SW8.3 km/hWest-SW1028.7 hPa0.0 mm0.0 mm/h
22.02.2020 - 15.15Uhr14.5 °C3.5 °C48 %352.0 W/m²5.5 km/hWest-SW12.2 km/hWesten1028.6 hPa0.0 mm0.0 mm/h
22.02.2020 - 15.20Uhr14.6 °C4.1 °C49 %353.0 W/m²3.7 km/hWest-SW8.3 km/hWest-SW1028.5 hPa0.0 mm0.0 mm/h
22.02.2020 - 15.25Uhr14.6 °C3.5 °C47 %299.0 W/m²5.5 km/hWesten12.2 km/hWesten1028.5 hPa0.0 mm0.0 mm/h
22.02.2020 - 15.30Uhr14.4 °C3.6 °C48 %279.0 W/m²5.6 km/hWest-SW12.2 km/hWest-NW1028.3 hPa0.0 mm0.0 mm/h
22.02.2020 - 15.35Uhr14.3 °C2.6 °C45 %281.0 W/m²5.3 km/hWesten12.2 km/hWest-SW1028.2 hPa0.0 mm0.0 mm/h
22.02.2020 - 15.40Uhr14.4 °C1.7 °C42 %278.0 W/m²6.2 km/hWesten10.1 km/hWest-NW1028.2 hPa0.0 mm0.0 mm/h
22.02.2020 - 15.45Uhr14.3 °C1.8 °C42 %287.0 W/m²7.6 km/hWest-NW14.0 km/hWest-NW1028.3 hPa0.0 mm0.0 mm/h
22.02.2020 - 15.50Uhr14.3 °C1.6 °C42 %236.0 W/m²8.5 km/hWest-NW14.0 km/hWesten1028.3 hPa0.0 mm0.0 mm/h
22.02.2020 - 15.55Uhr14.1 °C1.0 °C41 %216.0 W/m²9.4 km/hWest-NW14.0 km/hWesten1028.3 hPa0.0 mm0.0 mm/h
22.02.2020 - 16.00Uhr13.9 °C1.1 °C42 %236.0 W/m²11.3 km/hWest-NW16.2 km/hWesten1028.3 hPa0.0 mm0.0 mm/h
22.02.2020 - 16.05Uhr13.8 °C1.1 °C42 %251.0 W/m²7.9 km/hWest-NW14.0 km/hWesten1028.2 hPa0.0 mm0.0 mm/h
22.02.2020 - 16.10Uhr13.9 °C1.8 °C44 %218.0 W/m²9.7 km/hWesten16.2 km/hWesten1028.2 hPa0.0 mm0.0 mm/h
22.02.2020 - 16.15Uhr14.0 °C1.6 °C43 %197.0 W/m²11.5 km/hWest-NW16.2 km/hWest-NW1028.4 hPa0.0 mm0.0 mm/h
22.02.2020 - 16.20Uhr13.8 °C1.4 °C43 %239.0 W/m²12.2 km/hWesten22.0 km/hWesten1028.5 hPa0.0 mm0.0 mm/h
22.02.2020 - 16.25Uhr14.0 °C1.1 °C42 %225.0 W/m²9.9 km/hWest-SW14.0 km/hWest-SW1028.5 hPa0.0 mm0.0 mm/h
22.02.2020 - 16.30Uhr14.2 °C1.1 °C41 %206.0 W/m²7.5 km/hWesten12.2 km/hWest-SW1028.5 hPa0.0 mm0.0 mm/h
22.02.2020 - 16.35Uhr14.3 °C0.9 °C40 %176.0 W/m²7.4 km/hWest-SW12.2 km/hWesten1028.6 hPa0.0 mm0.0 mm/h
22.02.2020 - 16.40Uhr14.2 °C0.1 °C38 %151.0 W/m²7.7 km/hSüdwesten14.0 km/hSüdwesten1028.5 hPa0.0 mm0.0 mm/h
22.02.2020 - 16.45Uhr14.0 °C0.2 °C39 %111.0 W/m²5.3 km/hSüdwesten10.1 km/hSüdwesten1028.4 hPa0.0 mm0.0 mm/h
22.02.2020 - 16.50Uhr13.8 °C-0.2 °C38 %97.0 W/m²3.2 km/hSüdwesten8.3 km/hSüdwesten1028.4 hPa0.0 mm0.0 mm/h
22.02.2020 - 16.55Uhr13.6 °C-0.4 °C38 %77.0 W/m²5.6 km/hSüdwesten12.2 km/hSüdwesten1028.5 hPa0.0 mm0.0 mm/h
22.02.2020 - 17.00Uhr13.5 °C-0.4 °C38 %63.0 W/m²5.0 km/hWest-NW8.3 km/hWest-NW1028.5 hPa0.0 mm0.0 mm/h
22.02.2020 - 17.05Uhr13.3 °C-0.6 °C38 %49.0 W/m²4.0 km/hWest-SW8.3 km/hWesten1028.7 hPa0.0 mm0.0 mm/h